sensor_id;sensor_type;location;lat;lon;timestamp;pressure;altitude;pressure_sealevel;temperature;humidity
65384;BME280;51986;52.788;41.368;2022-07-04T00:01:31;99042.91;;;18.92;54.56
65384;BME280;51986;52.788;41.368;2022-07-04T00:03:58;99055.34;;;18.95;53.96
65384;BME280;51986;52.788;41.368;2022-07-04T00:06:26;99032.75;;;18.82;54.36
65384;BME280;51986;52.788;41.368;2022-07-04T00:08:53;99049.22;;;18.80;54.59
65384;BME280;51986;52.788;41.368;2022-07-04T00:11:19;99039.59;;;18.73;54.27
65384;BME280;51986;52.788;41.368;2022-07-04T00:13:46;99058.41;;;18.79;53.42
65384;BME280;51986;52.788;41.368;2022-07-04T00:16:13;99029.41;;;18.63;53.74
65384;BME280;51986;52.788;41.368;2022-07-04T00:18:40;99051.56;;;18.54;53.34
65384;BME280;51986;52.788;41.368;2022-07-04T00:21:07;99058.84;;;18.54;53.10
65384;BME280;51986;52.788;41.368;2022-07-04T00:23:34;99067.91;;;18.47;54.50
65384;BME280;51986;52.788;41.368;2022-07-04T00:26:01;99060.78;;;18.44;54.57
65384;BME280;51986;52.788;41.368;2022-07-04T00:28:28;99045.66;;;18.41;53.67
65384;BME280;51986;52.788;41.368;2022-07-04T00:30:55;99012.22;;;18.12;53.68
65384;BME280;51986;52.788;41.368;2022-07-04T00:33:22;99072.53;;;18.28;54.96
65384;BME280;51986;52.788;41.368;2022-07-04T00:35:49;99066.94;;;18.26;54.63
65384;BME280;51986;52.788;41.368;2022-07-04T00:38:16;99060.25;;;18.21;54.83
65384;BME280;51986;52.788;41.368;2022-07-04T00:40:43;99068.56;;;18.23;54.69
65384;BME280;51986;52.788;41.368;2022-07-04T00:43:10;99066.81;;;18.11;55.47
65384;BME280;51986;52.788;41.368;2022-07-04T00:45:37;99062.81;;;18.16;55.67
65384;BME280;51986;52.788;41.368;2022-07-04T00:48:04;99076.28;;;18.12;55.71
65384;BME280;51986;52.788;41.368;2022-07-04T00:50:31;99062.22;;;17.93;57.92
65384;BME280;51986;52.788;41.368;2022-07-04T00:52:58;99068.44;;;17.90;57.13
65384;BME280;51986;52.788;41.368;2022-07-04T00:55:26;99062.38;;;17.81;58.12
65384;BME280;51986;52.788;41.368;2022-07-04T00:57:53;99060.13;;;17.88;58.13
65384;BME280;51986;52.788;41.368;2022-07-04T01:00:20;99073.66;;;17.66;58.95
65384;BME280;51986;52.788;41.368;2022-07-04T01:02:47;99065.94;;;17.59;58.24
65384;BME280;51986;52.788;41.368;2022-07-04T01:05:14;99072.13;;;17.47;58.97
65384;BME280;51986;52.788;41.368;2022-07-04T01:07:43;99077.78;;;17.40;59.01
65384;BME280;51986;52.788;41.368;2022-07-04T01:10:10;99079.22;;;17.32;59.24
65384;BME280;51986;52.788;41.368;2022-07-04T01:12:37;99077.00;;;17.30;59.90
65384;BME280;51986;52.788;41.368;2022-07-04T01:15:06;99064.13;;;17.29;60.01
65384;BME280;51986;52.788;41.368;2022-07-04T01:17:34;99079.53;;;17.25;60.08
65384;BME280;51986;52.788;41.368;2022-07-04T01:20:01;99100.47;;;17.13;60.58
65384;BME280;51986;52.788;41.368;2022-07-04T01:22:28;99101.50;;;17.07;60.47
65384;BME280;51986;52.788;41.368;2022-07-04T01:24:55;99090.38;;;16.99;61.24
65384;BME280;51986;52.788;41.368;2022-07-04T01:27:22;99102.78;;;16.93;61.49
65384;BME280;51986;52.788;41.368;2022-07-04T01:29:49;99075.38;;;16.83;61.66
65384;BME280;51986;52.788;41.368;2022-07-04T01:32:16;99078.22;;;16.89;60.98
65384;BME280;51986;52.788;41.368;2022-07-04T01:34:43;99090.19;;;16.84;61.85
65384;BME280;51986;52.788;41.368;2022-07-04T01:37:10;99090.22;;;16.93;61.86
65384;BME280;51986;52.788;41.368;2022-07-04T01:39:38;99106.66;;;16.92;62.29
65384;BME280;51986;52.788;41.368;2022-07-04T01:42:05;99108.75;;;16.97;61.47
65384;BME280;51986;52.788;41.368;2022-07-04T01:44:32;99106.66;;;16.92;62.04
65384;BME280;51986;52.788;41.368;2022-07-04T01:46:59;99103.72;;;17.08;61.65
65384;BME280;51986;52.788;41.368;2022-07-04T01:49:27;99102.25;;;17.07;61.58
65384;BME280;51986;52.788;41.368;2022-07-04T01:51:54;99104.34;;;17.12;61.65
65384;BME280;51986;52.788;41.368;2022-07-04T01:54:21;99098.13;;;17.15;61.65
65384;BME280;51986;52.788;41.368;2022-07-04T01:56:48;99076.19;;;17.02;61.31
65384;BME280;51986;52.788;41.368;2022-07-04T01:59:15;99094.72;;;17.15;61.37
65384;BME280;51986;52.788;41.368;2022-07-04T02:01:42;99094.34;;;17.26;61.16
65384;BME280;51986;52.788;41.368;2022-07-04T02:04:09;99096.69;;;17.33;60.92
65384;BME280;51986;52.788;41.368;2022-07-04T02:06:36;99070.63;;;17.18;60.90
65384;BME280;51986;52.788;41.368;2022-07-04T02:09:03;99070.22;;;17.29;60.97
65384;BME280;51986;52.788;41.368;2022-07-04T02:11:30;99104.16;;;17.38;61.34
65384;BME280;51986;52.788;41.368;2022-07-04T02:13:57;99112.91;;;17.48;60.82
65384;BME280;51986;52.788;41.368;2022-07-04T02:16:24;99100.00;;;17.55;61.15
65384;BME280;51986;52.788;41.368;2022-07-04T02:18:51;99111.13;;;17.72;60.38
65384;BME280;51986;52.788;41.368;2022-07-04T02:21:18;99092.75;;;17.74;60.15
65384;BME280;51986;52.788;41.368;2022-07-04T02:23:44;99122.69;;;17.69;60.67
65384;BME280;51986;52.788;41.368;2022-07-04T02:26:11;99112.47;;;17.67;60.63
65384;BME280;51986;52.788;41.368;2022-07-04T02:28:38;99128.78;;;17.79;60.49
65384;BME280;51986;52.788;41.368;2022-07-04T02:31:05;99135.00;;;17.85;60.11
65384;BME280;51986;52.788;41.368;2022-07-04T02:33:32;99133.50;;;17.84;59.91
65384;BME280;51986;52.788;41.368;2022-07-04T02:35:59;99115.56;;;18.03;59.96
65384;BME280;51986;52.788;41.368;2022-07-04T02:38:26;99125.78;;;18.32;59.13
65384;BME280;51986;52.788;41.368;2022-07-04T02:40:53;99119.59;;;20.50;53.28
65384;BME280;51986;52.788;41.368;2022-07-04T02:43:20;99108.78;;;22.17;48.35
65384;BME280;51986;52.788;41.368;2022-07-04T02:45:47;99114.78;;;23.01;45.68
65384;BME280;51986;52.788;41.368;2022-07-04T02:48:14;99126.19;;;24.16;42.55
65384;BME280;51986;52.788;41.368;2022-07-04T02:50:41;99129.81;;;25.19;40.80
65384;BME280;51986;52.788;41.368;2022-07-04T02:53:08;99113.44;;;25.64;39.47
65384;BME280;51986;52.788;41.368;2022-07-04T02:55:35;99121.06;;;26.67;36.60
65384;BME280;51986;52.788;41.368;2022-07-04T02:58:01;99108.03;;;27.14;36.24
65384;BME280;51986;52.788;41.368;2022-07-04T03:00:29;99092.81;;;27.87;35.15
65384;BME280;51986;52.788;41.368;2022-07-04T03:02:55;99095.69;;;28.53;33.56
65384;BME280;51986;52.788;41.368;2022-07-04T03:05:22;99120.59;;;28.84;32.66
65384;BME280;51986;52.788;41.368;2022-07-04T03:07:49;99108.47;;;28.85;32.33
65384;BME280;51986;52.788;41.368;2022-07-04T03:10:16;99120.72;;;28.78;32.44
65384;BME280;51986;52.788;41.368;2022-07-04T03:12:43;99102.91;;;29.30;31.77
65384;BME280;51986;52.788;41.368;2022-07-04T03:15:10;99118.19;;;29.67;31.36
65384;BME280;51986;52.788;41.368;2022-07-04T03:17:37;99108.72;;;29.48;31.61
65384;BME280;51986;52.788;41.368;2022-07-04T03:20:05;99100.59;;;30.03;30.91
65384;BME280;51986;52.788;41.368;2022-07-04T03:22:32;99111.75;;;30.12;30.49
65384;BME280;51986;52.788;41.368;2022-07-04T03:24:59;99122.41;;;30.81;29.52
65384;BME280;51986;52.788;41.368;2022-07-04T03:27:26;99120.41;;;31.10;29.21
65384;BME280;51986;52.788;41.368;2022-07-04T03:29:52;99121.53;;;31.22;28.57
65384;BME280;51986;52.788;41.368;2022-07-04T03:32:19;99127.47;;;31.05;28.42
65384;BME280;51986;52.788;41.368;2022-07-04T03:34:46;99123.34;;;31.19;28.59
65384;BME280;51986;52.788;41.368;2022-07-04T03:37:13;99108.75;;;31.46;28.25
65384;BME280;51986;52.788;41.368;2022-07-04T03:39:40;99110.81;;;31.83;27.53
65384;BME280;51986;52.788;41.368;2022-07-04T03:42:07;99119.81;;;31.40;28.22
65384;BME280;51986;52.788;41.368;2022-07-04T03:44:34;99115.66;;;31.47;28.08
65384;BME280;51986;52.788;41.368;2022-07-04T03:47:01;99133.66;;;31.50;27.16
65384;BME280;51986;52.788;41.368;2022-07-04T03:49:28;99129.78;;;32.27;26.72
65384;BME280;51986;52.788;41.368;2022-07-04T03:51:55;99129.28;;;31.47;27.77
65384;BME280;51986;52.788;41.368;2022-07-04T03:54:22;99116.25;;;31.16;27.88
65384;BME280;51986;52.788;41.368;2022-07-04T03:56:49;99121.22;;;31.92;27.09
65384;BME280;51986;52.788;41.368;2022-07-04T03:59:16;99133.06;;;32.49;26.90
65384;BME280;51986;52.788;41.368;2022-07-04T04:01:43;99115.53;;;32.82;26.14
65384;BME280;51986;52.788;41.368;2022-07-04T04:04:10;99112.28;;;32.76;26.02
65384;BME280;51986;52.788;41.368;2022-07-04T04:06:37;99131.56;;;32.78;26.14
65384;BME280;51986;52.788;41.368;2022-07-04T04:09:04;99124.06;;;33.02;25.83
65384;BME280;51986;52.788;41.368;2022-07-04T04:11:36;99117.38;;;33.28;25.21
65384;BME280;51986;52.788;41.368;2022-07-04T04:14:03;99134.69;;;33.30;25.65
65384;BME280;51986;52.788;41.368;2022-07-04T04:16:30;99141.03;;;32.69;25.85
65384;BME280;51986;52.788;41.368;2022-07-04T04:18:57;99118.50;;;32.61;25.97
65384;BME280;51986;52.788;41.368;2022-07-04T04:21:23;99131.59;;;32.55;25.62
65384;BME280;51986;52.788;41.368;2022-07-04T04:23:50;99139.06;;;32.32;26.11
65384;BME280;51986;52.788;41.368;2022-07-04T04:26:17;99127.94;;;31.91;26.28
65384;BME280;51986;52.788;41.368;2022-07-04T04:28:44;99136.50;;;31.96;26.54
65384;BME280;51986;52.788;41.368;2022-07-04T04:31:11;99136.34;;;32.39;25.42
65384;BME280;51986;52.788;41.368;2022-07-04T04:33:38;99141.06;;;32.47;26.08
65384;BME280;51986;52.788;41.368;2022-07-04T04:36:05;99120.31;;;32.51;25.44
65384;BME280;51986;52.788;41.368;2022-07-04T04:38:32;99171.47;;;32.58;25.97
65384;BME280;51986;52.788;41.368;2022-07-04T04:40:59;99088.28;;;31.75;26.68
65384;BME280;51986;52.788;41.368;2022-07-04T04:43:26;99124.31;;;31.97;26.08
65384;BME280;51986;52.788;41.368;2022-07-04T04:45:53;99156.41;;;31.60;26.65
65384;BME280;51986;52.788;41.368;2022-07-04T04:48:20;99114.28;;;31.25;26.96
65384;BME280;51986;52.788;41.368;2022-07-04T04:50:47;99124.13;;;31.35;27.27
65384;BME280;51986;52.788;41.368;2022-07-04T04:53:14;99144.97;;;31.69;27.26
65384;BME280;51986;52.788;41.368;2022-07-04T04:55:41;99131.03;;;30.92;27.91
65384;BME280;51986;52.788;41.368;2022-07-04T04:58:07;99129.94;;;30.38;28.13
65384;BME280;51986;52.788;41.368;2022-07-04T05:00:34;99125.94;;;30.39;28.36
65384;BME280;51986;52.788;41.368;2022-07-04T05:03:01;99151.88;;;30.40;28.47
65384;BME280;51986;52.788;41.368;2022-07-04T05:05:28;99138.34;;;30.06;29.42
65384;BME280;51986;52.788;41.368;2022-07-04T05:07:55;99141.88;;;30.35;29.42
65384;BME280;51986;52.788;41.368;2022-07-04T05:10:22;99155.19;;;29.71;29.77
65384;BME280;51986;52.788;41.368;2022-07-04T05:12:49;99135.84;;;29.00;30.10
65384;BME280;51986;52.788;41.368;2022-07-04T05:15:16;99144.47;;;29.52;29.26
65384;BME280;51986;52.788;41.368;2022-07-04T05:17:43;99158.09;;;28.99;29.78
65384;BME280;51986;52.788;41.368;2022-07-04T05:20:10;99149.13;;;27.94;31.53
65384;BME280;51986;52.788;41.368;2022-07-04T05:22:37;99143.97;;;28.28;31.79
65384;BME280;51986;52.788;41.368;2022-07-04T05:25:04;99160.28;;;27.72;32.84
65384;BME280;51986;52.788;41.368;2022-07-04T05:27:32;99146.88;;;27.79;32.38
65384;BME280;51986;52.788;41.368;2022-07-04T05:29:59;99142.41;;;27.20;33.53
65384;BME280;51986;52.788;41.368;2022-07-04T05:32:26;99141.13;;;27.26;32.69
65384;BME280;51986;52.788;41.368;2022-07-04T05:34:53;99147.44;;;27.10;33.59
65384;BME280;51986;52.788;41.368;2022-07-04T05:37:20;99148.19;;;26.86;33.18
65384;BME280;51986;52.788;41.368;2022-07-04T05:39:47;99135.72;;;26.77;33.80
65384;BME280;51986;52.788;41.368;2022-07-04T05:42:14;99160.31;;;27.04;34.03
65384;BME280;51986;52.788;41.368;2022-07-04T05:44:41;99160.06;;;26.77;33.56
65384;BME280;51986;52.788;41.368;2022-07-04T05:47:09;99130.28;;;26.53;33.64
65384;BME280;51986;52.788;41.368;2022-07-04T05:49:36;99169.63;;;26.54;33.39
65384;BME280;51986;52.788;41.368;2022-07-04T05:52:03;99156.38;;;26.50;33.61
65384;BME280;51986;52.788;41.368;2022-07-04T05:54:30;99185.22;;;26.67;33.87
65384;BME280;51986;52.788;41.368;2022-07-04T05:56:56;99180.19;;;26.87;34.18
65384;BME280;51986;52.788;41.368;2022-07-04T05:59:23;99150.41;;;26.27;33.95
65384;BME280;51986;52.788;41.368;2022-07-04T06:01:50;99147.53;;;26.50;33.59
65384;BME280;51986;52.788;41.368;2022-07-04T06:04:17;99132.34;;;26.41;33.03
65384;BME280;51986;52.788;41.368;2022-07-04T06:06:44;99147.84;;;26.41;33.32
65384;BME280;51986;52.788;41.368;2022-07-04T06:09:11;99129.28;;;27.05;31.38
65384;BME280;51986;52.788;41.368;2022-07-04T06:11:43;99161.75;;;27.29;31.42
65384;BME280;51986;52.788;41.368;2022-07-04T06:14:10;99138.59;;;27.09;32.51
65384;BME280;51986;52.788;41.368;2022-07-04T06:16:37;99159.41;;;27.45;31.48
65384;BME280;51986;52.788;41.368;2022-07-04T06:19:04;99156.38;;;27.05;32.28
65384;BME280;51986;52.788;41.368;2022-07-04T06:21:31;99146.88;;;26.68;32.99
65384;BME280;51986;52.788;41.368;2022-07-04T06:23:58;99155.44;;;26.72;32.69
65384;BME280;51986;52.788;41.368;2022-07-04T06:26:25;99170.28;;;26.90;32.04
65384;BME280;51986;52.788;41.368;2022-07-04T06:28:52;99151.97;;;26.77;31.93
65384;BME280;51986;52.788;41.368;2022-07-04T06:31:18;99158.28;;;26.85;32.15
65384;BME280;51986;52.788;41.368;2022-07-04T06:33:45;99152.84;;;26.91;32.39
65384;BME280;51986;52.788;41.368;2022-07-04T06:36:12;99163.22;;;26.81;32.61
65384;BME280;51986;52.788;41.368;2022-07-04T06:38:39;99155.34;;;26.83;32.05
65384;BME280;51986;52.788;41.368;2022-07-04T06:41:06;99174.97;;;26.59;31.61
65384;BME280;51986;52.788;41.368;2022-07-04T06:43:33;99145.25;;;26.24;32.86
65384;BME280;51986;52.788;41.368;2022-07-04T06:46:00;99124.81;;;26.28;32.19
65384;BME280;51986;52.788;41.368;2022-07-04T06:48:27;99169.72;;;26.73;31.89
65384;BME280;51986;52.788;41.368;2022-07-04T06:50:54;99164.00;;;26.76;32.22
65384;BME280;51986;52.788;41.368;2022-07-04T06:53:21;99122.72;;;26.46;32.02
65384;BME280;51986;52.788;41.368;2022-07-04T06:55:47;99138.75;;;26.38;31.82
65384;BME280;51986;52.788;41.368;2022-07-04T06:58:14;99158.41;;;26.03;32.08
65384;BME280;51986;52.788;41.368;2022-07-04T07:00:42;99154.03;;;26.35;31.92
65384;BME280;51986;52.788;41.368;2022-07-04T07:03:09;99140.91;;;26.09;32.05
65384;BME280;51986;52.788;41.368;2022-07-04T07:05:36;99161.72;;;26.56;30.93
65384;BME280;51986;52.788;41.368;2022-07-04T07:08:23;99152.88;;;26.85;31.29
65384;BME280;51986;52.788;41.368;2022-07-04T07:10:50;99154.56;;;26.88;31.31
65384;BME280;51986;52.788;41.368;2022-07-04T07:13:17;99138.84;;;26.87;31.03
65384;BME280;51986;52.788;41.368;2022-07-04T07:15:44;99127.31;;;27.05;30.95
65384;BME280;51986;52.788;41.368;2022-07-04T07:18:11;99150.03;;;27.21;30.75
65384;BME280;51986;52.788;41.368;2022-07-04T07:20:39;99144.75;;;27.53;30.15
65384;BME280;51986;52.788;41.368;2022-07-04T07:23:06;99121.75;;;26.98;31.01
65384;BME280;51986;52.788;41.368;2022-07-04T07:25:33;99138.50;;;27.39;30.35
65384;BME280;51986;52.788;41.368;2022-07-04T07:28:00;99133.25;;;27.66;31.00
65384;BME280;51986;52.788;41.368;2022-07-04T07:30:27;99134.72;;;27.05;30.66
65384;BME280;51986;52.788;41.368;2022-07-04T07:32:54;99121.31;;;26.94;30.93
65384;BME280;51986;52.788;41.368;2022-07-04T07:35:20;99134.16;;;27.12;30.91
65384;BME280;51986;52.788;41.368;2022-07-04T07:37:47;99134.00;;;27.48;30.81
65384;BME280;51986;52.788;41.368;2022-07-04T07:40:14;99126.72;;;27.37;30.02
65384;BME280;51986;52.788;41.368;2022-07-04T07:42:41;99118.63;;;27.12;29.61
65384;BME280;51986;52.788;41.368;2022-07-04T07:45:08;99137.88;;;27.52;29.99
65384;BME280;51986;52.788;41.368;2022-07-04T07:47:35;99150.56;;;27.38;29.45
65384;BME280;51986;52.788;41.368;2022-07-04T07:50:03;99142.78;;;27.29;28.01
65384;BME280;51986;52.788;41.368;2022-07-04T07:52:30;99138.41;;;27.26;28.48
65384;BME280;51986;52.788;41.368;2022-07-04T07:54:57;99122.53;;;27.17;29.52
65384;BME280;51986;52.788;41.368;2022-07-04T07:57:27;99143.53;;;26.86;30.35
65384;BME280;51986;52.788;41.368;2022-07-04T07:59:54;99131.38;;;27.18;30.36
65384;BME280;51986;52.788;41.368;2022-07-04T08:02:21;99140.13;;;27.67;29.45
65384;BME280;51986;52.788;41.368;2022-07-04T08:04:48;99133.47;;;27.87;28.88
65384;BME280;51986;52.788;41.368;2022-07-04T08:07:15;99139.78;;;27.57;28.74
65384;BME280;51986;52.788;41.368;2022-07-04T08:09:49;99132.75;;;27.49;28.33
65384;BME280;51986;52.788;41.368;2022-07-04T08:12:16;99137.44;;;27.24;28.26
65384;BME280;51986;52.788;41.368;2022-07-04T08:14:43;99133.25;;;27.47;28.19
65384;BME280;51986;52.788;41.368;2022-07-04T08:17:10;99146.44;;;27.13;28.86
65384;BME280;51986;52.788;41.368;2022-07-04T08:19:38;99138.56;;;27.34;28.99
65384;BME280;51986;52.788;41.368;2022-07-04T08:22:05;99143.00;;;27.12;29.58
65384;BME280;51986;52.788;41.368;2022-07-04T08:24:42;99125.31;;;27.30;29.81
65384;BME280;51986;52.788;41.368;2022-07-04T08:27:10;99119.59;;;27.15;29.41
65384;BME280;51986;52.788;41.368;2022-07-04T08:29:37;99105.44;;;27.47;28.94
65384;BME280;51986;52.788;41.368;2022-07-04T08:32:05;99113.72;;;27.73;28.51
65384;BME280;51986;52.788;41.368;2022-07-04T08:34:32;99118.28;;;27.22;29.18
65384;BME280;51986;52.788;41.368;2022-07-04T08:36:59;99123.09;;;27.29;29.33
65384;BME280;51986;52.788;41.368;2022-07-04T08:39:26;99123.75;;;27.59;29.04
65384;BME280;51986;52.788;41.368;2022-07-04T08:41:56;99116.03;;;27.26;28.83
65384;BME280;51986;52.788;41.368;2022-07-04T08:44:27;99120.78;;;27.38;29.65
65384;BME280;51986;52.788;41.368;2022-07-04T08:46:54;99118.13;;;27.33;28.67
65384;BME280;51986;52.788;41.368;2022-07-04T08:49:24;99125.31;;;27.30;29.66
65384;BME280;51986;52.788;41.368;2022-07-04T08:52:03;99131.59;;;27.20;29.52
65384;BME280;51986;52.788;41.368;2022-07-04T08:54:32;99120.06;;;27.76;28.86
65384;BME280;51986;52.788;41.368;2022-07-04T08:56:59;99121.41;;;28.20;28.25
65384;BME280;51986;52.788;41.368;2022-07-04T08:59:26;99136.88;;;28.38;28.37
65384;BME280;51986;52.788;41.368;2022-07-04T09:01:53;99117.72;;;27.48;29.39
65384;BME280;51986;52.788;41.368;2022-07-04T09:04:21;99119.19;;;27.30;29.54
65384;BME280;51986;52.788;41.368;2022-07-04T09:06:49;99126.88;;;27.82;29.15
65384;BME280;51986;52.788;41.368;2022-07-04T09:09:17;99130.16;;;28.13;29.12
65384;BME280;51986;52.788;41.368;2022-07-04T09:11:44;99129.19;;;28.43;28.46
65384;BME280;51986;52.788;41.368;2022-07-04T09:14:11;99124.25;;;28.73;27.29
65384;BME280;51986;52.788;41.368;2022-07-04T09:16:39;99132.50;;;28.94;27.04
65384;BME280;51986;52.788;41.368;2022-07-04T09:19:09;99122.16;;;28.21;28.97
65384;BME280;51986;52.788;41.368;2022-07-04T09:21:44;99112.88;;;27.41;29.86
65384;BME280;51986;52.788;41.368;2022-07-04T09:24:11;99100.97;;;28.19;28.85
65384;BME280;51986;52.788;41.368;2022-07-04T09:26:44;99127.28;;;28.37;27.60
65384;BME280;51986;52.788;41.368;2022-07-04T09:29:12;99116.97;;;27.85;28.55
65384;BME280;51986;52.788;41.368;2022-07-04T09:31:39;99117.56;;;27.97;29.77
65384;BME280;51986;52.788;41.368;2022-07-04T09:34:07;99126.91;;;28.14;28.40
65384;BME280;51986;52.788;41.368;2022-07-04T09:36:39;99120.66;;;28.06;29.09
65384;BME280;51986;52.788;41.368;2022-07-04T09:39:33;99123.72;;;27.41;30.11
65384;BME280;51986;52.788;41.368;2022-07-04T09:42:03;99110.88;;;27.03;30.36
65384;BME280;51986;52.788;41.368;2022-07-04T09:44:47;99126.28;;;27.89;28.38
65384;BME280;51986;52.788;41.368;2022-07-04T09:47:25;99124.75;;;27.94;28.97
65384;BME280;51986;52.788;41.368;2022-07-04T09:50:12;99126.75;;;27.75;28.90
65384;BME280;51986;52.788;41.368;2022-07-04T09:53:03;99114.72;;;27.70;28.75
65384;BME280;51986;52.788;41.368;2022-07-04T09:58:02;99117.13;;;27.93;29.03
65384;BME280;51986;52.788;41.368;2022-07-04T10:00:34;99095.56;;;28.32;28.45
65384;BME280;51986;52.788;41.368;2022-07-04T10:03:22;99098.47;;;28.21;28.86
65384;BME280;51986;52.788;41.368;2022-07-04T10:06:04;99116.94;;;28.04;28.10
65384;BME280;51986;52.788;41.368;2022-07-04T10:08:32;99113.16;;;27.94;27.95
65384;BME280;51986;52.788;41.368;2022-07-04T10:11:00;99105.03;;;28.71;27.07
65384;BME280;51986;52.788;41.368;2022-07-04T10:13:34;99093.00;;;29.06;27.12
65384;BME280;51986;52.788;41.368;2022-07-04T10:16:01;99090.13;;;29.52;26.69
65384;BME280;51986;52.788;41.368;2022-07-04T10:18:29;99100.66;;;28.81;26.87
65384;BME280;51986;52.788;41.368;2022-07-04T10:20:56;99099.94;;;28.22;27.48
65384;BME280;51986;52.788;41.368;2022-07-04T10:23:24;99099.75;;;28.33;28.10
65384;BME280;51986;52.788;41.368;2022-07-04T10:25:52;99100.75;;;28.76;27.49
65384;BME280;51986;52.788;41.368;2022-07-04T10:28:19;99074.91;;;29.35;26.50
65384;BME280;51986;52.788;41.368;2022-07-04T10:30:52;99097.09;;;29.13;26.69
65384;BME280;51986;52.788;41.368;2022-07-04T10:33:24;99086.41;;;29.41;27.12
65384;BME280;51986;52.788;41.368;2022-07-04T10:35:57;99124.44;;;28.17;28.63
65384;BME280;51986;52.788;41.368;2022-07-04T10:38:26;99074.84;;;28.03;28.42
65384;BME280;51986;52.788;41.368;2022-07-04T10:40:56;99086.06;;;28.26;27.83
65384;BME280;51986;52.788;41.368;2022-07-04T10:51:44;99061.19;;;28.80;27.60
65384;BME280;51986;52.788;41.368;2022-07-04T10:57:10;99035.91;;;29.46;26.96
65384;BME280;51986;52.788;41.368;2022-07-04T10:59:38;99064.88;;;29.30;26.56
65384;BME280;51986;52.788;41.368;2022-07-04T11:05:11;99064.50;;;28.47;28.38
65384;BME280;51986;52.788;41.368;2022-07-04T11:20:33;99059.84;;;29.34;25.90
65384;BME280;51986;52.788;41.368;2022-07-04T11:23:05;99066.63;;;28.67;27.44
65384;BME280;51986;52.788;41.368;2022-07-04T11:25:33;99076.63;;;28.85;27.28
65384;BME280;51986;52.788;41.368;2022-07-04T11:28:22;99076.72;;;28.40;27.22
65384;BME280;51986;52.788;41.368;2022-07-04T11:31:10;99045.66;;;28.09;27.81
65384;BME280;51986;52.788;41.368;2022-07-04T11:33:38;99061.66;;;27.94;28.03
65384;BME280;51986;52.788;41.368;2022-07-04T11:36:07;99055.50;;;28.25;27.58
65384;BME280;51986;52.788;41.368;2022-07-04T11:38:48;99069.69;;;28.31;27.36
65384;BME280;51986;52.788;41.368;2022-07-04T11:41:17;99082.91;;;28.67;27.68
65384;BME280;51986;52.788;41.368;2022-07-04T11:43:44;99050.25;;;28.14;27.98
65384;BME280;51986;52.788;41.368;2022-07-04T11:46:11;99081.66;;;27.90;28.59
65384;BME280;51986;52.788;41.368;2022-07-04T11:48:38;99059.91;;;28.55;27.70
65384;BME280;51986;52.788;41.368;2022-07-04T11:51:16;99060.09;;;28.44;27.53
65384;BME280;51986;52.788;41.368;2022-07-04T11:53:43;99055.41;;;28.44;27.66
65384;BME280;51986;52.788;41.368;2022-07-04T11:56:10;99065.78;;;28.59;27.63
65384;BME280;51986;52.788;41.368;2022-07-04T11:58:42;99038.22;;;28.55;27.40
65384;BME280;51986;52.788;41.368;2022-07-04T12:01:09;99065.22;;;29.00;26.89
65384;BME280;51986;52.788;41.368;2022-07-04T12:03:36;99054.91;;;28.85;27.66
65384;BME280;51986;52.788;41.368;2022-07-04T12:06:04;99057.97;;;28.69;27.81
65384;BME280;51986;52.788;41.368;2022-07-04T12:08:32;99073.91;;;28.59;27.93
65384;BME280;51986;52.788;41.368;2022-07-04T12:10:59;99056.16;;;28.45;26.97
65384;BME280;51986;52.788;41.368;2022-07-04T12:13:26;99061.59;;;28.98;26.37
65384;BME280;51986;52.788;41.368;2022-07-04T12:15:53;99068.91;;;28.76;27.30
65384;BME280;51986;52.788;41.368;2022-07-04T12:18:25;99054.38;;;28.60;28.00
65384;BME280;51986;52.788;41.368;2022-07-04T12:20:53;99038.47;;;27.79;28.41
65384;BME280;51986;52.788;41.368;2022-07-04T12:23:22;99051.31;;;27.79;28.60
65384;BME280;51986;52.788;41.368;2022-07-04T12:25:50;99048.97;;;27.70;28.53
65384;BME280;51986;52.788;41.368;2022-07-04T12:28:18;99056.66;;;27.66;28.87
65384;BME280;51986;52.788;41.368;2022-07-04T12:30:52;99036.00;;;27.44;29.29
65384;BME280;51986;52.788;41.368;2022-07-04T12:33:21;99018.63;;;27.20;28.85
65384;BME280;51986;52.788;41.368;2022-07-04T12:36:07;99030.25;;;27.53;28.85
65384;BME280;51986;52.788;41.368;2022-07-04T12:38:36;99029.31;;;27.82;28.27
65384;BME280;51986;52.788;41.368;2022-07-04T12:48:52;99050.31;;;28.54;27.33
65384;BME280;51986;52.788;41.368;2022-07-04T12:51:22;99031.94;;;27.56;28.51
65384;BME280;51986;52.788;41.368;2022-07-04T12:53:51;99046.78;;;27.68;28.47
65384;BME280;51986;52.788;41.368;2022-07-04T12:56:39;99065.91;;;27.57;28.09
65384;BME280;51986;52.788;41.368;2022-07-04T12:59:17;99044.13;;;27.44;28.51
65384;BME280;51986;52.788;41.368;2022-07-04T13:01:45;99021.69;;;27.11;29.28
65384;BME280;51986;52.788;41.368;2022-07-04T13:04:13;99044.59;;;26.91;28.97
65384;BME280;51986;52.788;41.368;2022-07-04T13:06:40;99039.47;;;27.06;28.37
65384;BME280;51986;52.788;41.368;2022-07-04T13:09:07;99039.84;;;27.16;28.54
65384;BME280;51986;52.788;41.368;2022-07-04T13:11:35;99046.78;;;27.68;28.45
65384;BME280;51986;52.788;41.368;2022-07-04T13:14:02;98998.16;;;27.38;28.99
65384;BME280;51986;52.788;41.368;2022-07-04T13:16:29;99030.09;;;27.26;29.04
65384;BME280;51986;52.788;41.368;2022-07-04T13:18:56;99039.97;;;27.43;28.35
65384;BME280;51986;52.788;41.368;2022-07-04T13:21:23;99004.13;;;27.55;28.56
65384;BME280;51986;52.788;41.368;2022-07-04T13:23:52;99013.19;;;27.39;28.67
65384;BME280;51986;52.788;41.368;2022-07-04T13:26:20;99013.56;;;27.11;28.13
65384;BME280;51986;52.788;41.368;2022-07-04T13:28:46;99055.78;;;27.57;28.11
65384;BME280;51986;52.788;41.368;2022-07-04T13:31:14;99019.00;;;27.49;27.53
65384;BME280;51986;52.788;41.368;2022-07-04T13:33:41;99026.84;;;27.66;27.71